地図

経路データ

SID SEASON NUMBER BASIN SUBBASIN NAME ISO_TIME NATURE LAT LON WMO_WIND WMO_PRES WMO_AGENCY TRACK_TYPE DIST2LAND LANDFALL IFLAG USA_AGENCY USA_ATCF_ID USA_LAT USA_LON USA_RECORD USA_STATUS USA_WIND USA_PRES USA_SSHS USA_R34_NE USA_R34_SE USA_R34_SW USA_R34_NW USA_R50_NE USA_R50_SE USA_R50_SW USA_R50_NW USA_R64_NE USA_R64_SE USA_R64_SW USA_R64_NW USA_POCI USA_ROCI USA_RMW USA_EYE TOKYO_LAT TOKYO_LON TOKYO_GRADE TOKYO_WIND TOKYO_PRES TOKYO_R50_DIR TOKYO_R50_LONG TOKYO_R50_SHORT TOKYO_R30_DIR TOKYO_R30_LONG TOKYO_R30_SHORT TOKYO_LAND CMA_LAT CMA_LON CMA_CAT CMA_WIND CMA_PRES HKO_LAT HKO_LON HKO_CAT HKO_WIND HKO_PRES NEWDELHI_LAT NEWDELHI_LON NEWDELHI_GRADE NEWDELHI_WIND NEWDELHI_PRES NEWDELHI_CI NEWDELHI_DP NEWDELHI_POCI REUNION_LAT REUNION_LON REUNION_TYPE REUNION_WIND REUNION_PRES REUNION_TNUM REUNION_CI REUNION_RMW REUNION_R34_NE REUNION_R34_SE REUNION_R34_SW REUNION_R34_NW REUNION_R50_NE REUNION_R50_SE REUNION_R50_SW REUNION_R50_NW REUNION_R64_NE REUNION_R64_SE REUNION_R64_SW REUNION_R64_NW BOM_LAT BOM_LON BOM_TYPE BOM_WIND BOM_PRES BOM_TNUM BOM_CI BOM_RMW BOM_R34_NE BOM_R34_SE BOM_R34_SW BOM_R34_NW BOM_R50_NE BOM_R50_SE BOM_R50_SW BOM_R50_NW BOM_R64_NE BOM_R64_SE BOM_R64_SW BOM_R64_NW BOM_ROCI BOM_POCI BOM_EYE BOM_POS_METHOD BOM_PRES_METHOD NADI_LAT NADI_LON NADI_CAT NADI_WIND NADI_PRES WELLINGTON_LAT WELLINGTON_LON WELLINGTON_WIND WELLINGTON_PRES DS824_LAT DS824_LON DS824_STAGE DS824_WIND DS824_PRES TD9636_LAT TD9636_LON TD9636_STAGE TD9636_WIND TD9636_PRES TD9635_LAT TD9635_LON TD9635_WIND TD9635_PRES TD9635_ROCI NEUMANN_LAT NEUMANN_LON NEUMANN_CLASS NEUMANN_WIND NEUMANN_PRES MLC_LAT MLC_LON MLC_CLASS MLC_WIND MLC_PRES USA_GUST BOM_GUST BOM_GUST_PER REUNION_GUST REUNION_GUST_PER USA_SEAHGT USA_SEARAD_NE USA_SEARAD_SE USA_SEARAD_SW USA_SEARAD_NW STORM_SPEED STORM_DIR
1970198N16257 1970 65 EP MM HELGA 1970-07-16 12:00:00 TS 15.9000 -103.300 25 hurdat_epa main 246 243 O________OO___ hurdat_epa EP071970 15.9000 -103.300 TD 25 -1 15.9000 -103.300 TC 25 15.9000 -103.300 1 8 290
1970198N16257 1970 65 EP MM HELGA 1970-07-16 15:00:00 TS 16.0424 -103.710 main 249 239 P________PP___ EP071970 16.0302 -103.715 TD 27 -1 16.0302 -103.715 TC 27 16.0913 -103.688 1 8 293
1970198N16257 1970 65 EP MM HELGA 1970-07-16 18:00:00 TS 16.2172 -104.092 30 hurdat_epa main 243 228 O________OP___ hurdat_epa EP071970 16.2000 -104.100 TD 30 -1 16.2000 -104.100 TC 30 16.2858 -104.062 1 8 300
1970198N16257 1970 65 EP MM HELGA 1970-07-16 21:00:00 TS 16.4454 -104.425 main 233 219 P________PP___ EP071970 16.4349 -104.430 TD 30 -1 16.4349 -104.430 TC 30 16.4874 -104.404 1 8 310
1970198N16257 1970 65 EP MM HELGA 1970-07-17 00:00:00 TS 16.7000 -104.700 30 hurdat_epa main 219 208 O________OO___ hurdat_epa EP071970 16.7000 -104.700 TD 30 -1 16.7000 -104.700 TC 30 16.7000 -104.700 1 7 316
1970198N16257 1970 65 EP MM HELGA 1970-07-17 03:00:00 TS 16.9454 -104.920 main 215 207 P________PP___ EP071970 16.9499 -104.915 TD 30 -1 16.9499 -104.915 TC 30 16.9271 -104.939 1 6 322
1970198N16257 1970 65 EP MM HELGA 1970-07-17 06:00:00 TS 17.1939 -105.108 30 hurdat_epa main 209 202 O________OP___ hurdat_epa EP071970 17.2000 -105.100 TD 30 -1 17.2000 -105.100 TC 30 17.1695 -105.138 1 6 324
1970198N16257 1970 65 EP MM HELGA 1970-07-17 09:00:00 TS 17.4394 -105.298 main 207 183 P________PP___ EP071970 17.4425 -105.293 TD 30 -1 17.4425 -105.293 TC 30 17.4272 -105.318 1 6 323
1970198N16257 1970 65 EP MM HELGA 1970-07-17 12:00:00 TS 17.7000 -105.500 30 hurdat_epa main 183 164 O________OO___ hurdat_epa EP071970 17.7000 -105.500 TD 30 -1 17.7000 -105.500 TC 30 17.7000 -105.500 2 7 322
1970198N16257 1970 65 EP MM HELGA 1970-07-17 15:00:00 TS 17.9887 -105.743 main 164 161 P________PP___ EP071970 17.9925 -105.750 TD 32 -1 17.9925 -105.750 TC 32 17.9734 -105.714 2 8 322
1970198N16257 1970 65 EP MM HELGA 1970-07-17 18:00:00 TS 18.2925 -105.987 35 hurdat_epa main 161 153 O________OP___ hurdat_epa EP071970 18.3000 -106.000 TS 35 0 18.3000 -106.000 TC 35 18.2624 -105.935 2 7 324
1970198N16257 1970 65 EP MM HELGA 1970-07-17 21:00:00 TS 18.5820 -106.193 main 154 145 P________PP___ EP071970 18.5849 -106.200 TS 35 0 18.5849 -106.200 TC 35 18.5702 -106.164 2 7 327
1970198N16257 1970 65 EP MM HELGA 1970-07-18 00:00:00 TS 18.9000 -106.400 35 hurdat_epa main 146 139 O________OO___ hurdat_epa EP071970 18.9000 -106.400 TS 35 0 18.9000 -106.400 TC 35 18.9000 -106.400 2 8 329
1970198N16257 1970 65 EP MM HELGA 1970-07-18 03:00:00 TS 19.2887 -106.636 main 139 137 P________PP___ EP071970 19.2925 -106.642 TS 35 0 19.2925 -106.642 TC 35 19.2733 -106.611 2 9 330
1970198N16257 1970 65 EP MM HELGA 1970-07-18 06:00:00 TS 19.6929 -106.887 35 hurdat_epa main 147 142 O________OP___ hurdat_epa EP071970 19.7000 -106.900 TS 35 0 19.7000 -106.900 TC 35 19.6643 -106.833 2 9 330
1970198N16257 1970 65 EP MM HELGA 1970-07-18 09:00:00 TS 20.0675 -107.114 main 149 149 P________PP___ EP071970 20.0723 -107.120 TS 37 0 20.0723 -107.120 TC 37 20.0481 -107.089 2 9 326
1970198N16257 1970 65 EP MM HELGA 1970-07-18 12:00:00 TS 20.4000 -107.400 40 hurdat_epa main 177 177 O________OO___ hurdat_epa EP071970 20.4000 -107.400 TS 40 0 20.4000 -107.400 TC 40 20.4000 -107.400 2 9 312
1970198N16257 1970 65 EP MM HELGA 1970-07-18 15:00:00 TS 20.6727 -107.826 main 221 221 P________PP___ EP071970 20.6651 -107.820 TS 45 0 20.6651 -107.820 TC 45 20.7032 -107.849 2 10 301
1970198N16257 1970 65 EP MM HELGA 1970-07-18 18:00:00 TS 20.9138 -108.309 50 hurdat_epa main 271 216 O________OP___ hurdat_epa EP071970 20.9000 -108.300 TS 50 0 20.9000 -108.300 TC 50 20.9690 -108.344 2 10 298
1970198N16257 1970 65 EP MM HELGA 1970-07-18 21:00:00 TS 21.1661 -108.799 main 216 178 P________PP___ EP071970 21.1576 -108.795 TS 47 0 21.1576 -108.795 TC 47 21.2001 -108.817 2 10 300
1970198N16257 1970 65 EP MM HELGA 1970-07-19 00:00:00 TS 21.4000 -109.200 45 hurdat_epa main 178 151 O________OO___ hurdat_epa EP071970 21.4000 -109.200 TS 45 0 21.4000 -109.200 TC 45 21.4000 -109.200 2 7 308
1970198N16257 1970 65 EP MM HELGA 1970-07-19 03:00:00 TS 21.6216 -109.413 main 151 126 P________PP___ EP071970 21.6223 -109.410 TS 42 0 21.6223 -109.410 TC 42 21.6186 -109.426 2 5 324
1970198N16257 1970 65 EP MM HELGA 1970-07-19 06:00:00 TS 21.8008 -109.510 40 hurdat_epa main 126 113 O________OP___ hurdat_epa EP071970 21.8000 -109.500 TS 40 0 21.8000 -109.500 TC 40 21.8041 -109.551 2 3 330
1970198N16257 1970 65 EP MM HELGA 1970-07-19 09:00:00 TS 21.9195 -109.596 main 113 102 P________PP___ EP071970 21.9150 -109.595 TS 37 0 21.9150 -109.595 TC 37 21.9376 -109.601 2 2 339
1970198N16257 1970 65 EP MM HELGA 1970-07-19 12:00:00 TS 22.0000 -109.600 35 hurdat_epa main 102 91 O________OO___ hurdat_epa EP071970 22.0000 -109.600 TS 35 0 22.0000 -109.600 TC 35 22.0000 -109.600 2 2 29
1970198N16257 1970 65 EP MM HELGA 1970-07-19 15:00:00 TS 22.1239 -109.474 main 94 88 P________PP___ EP071970 22.1601 -109.450 TS 32 -1 22.1601 -109.450 TC 32 21.9790 -109.572 2 3 60
1970198N16257 1970 65 EP MM HELGA 1970-07-19 18:00:00 TS 22.1381 -109.345 30 hurdat_epa main 103 103 O________OP___ hurdat_epa EP071970 22.2000 -109.300 TD 30 -1 22.2000 -109.300 TC 30 21.8903 -109.525 2 2 145
1970198N16257 1970 65 EP MM HELGA 1970-07-19 21:00:00 TS 21.9353 -109.333 main 123 123 P________PP___ EP071970 21.9800 -109.300 TD 30 -1 21.9800 -109.300 TC 30 21.7565 -109.465 2 5 186
1970198N16257 1970 65 EP MM HELGA 1970-07-20 00:00:00 TS 21.6000 -109.400 30 hurdat_epa main 151 O________OO___ hurdat_epa EP071970 21.6000 -109.400 TD 30 -1 21.6000 -109.400 TC 30 21.6000 -109.400 6 7 190

IBTrACS Databaseについて

本データベースは、米国NOAAが公開する1842年以降の世界の熱帯低気圧のベストトラックデータアーカイブInternational Best Track Archive for Climate Stewardship (IBTrACS)を、ウェブで閲覧しやすい形式に変換したものです。

最終更新日:2021-12-06